Time;durP1;ratioP1;P1;durP2;ratioP2;P2;SDS_P1;SDS_P2;PMS_P1;PMS_P2;Temp;Humidity;BMP_temperature;BMP_pressure;BME280_temperature;BME280_humidity;BME280_pressure;Samples;Min_cycle;Max_cycle;Signal;HPM_P1;HPM_P2
2022/03/31 00:00:21;;;;;;;1.00;0.90;;;1.90;99.90;;;;;;4988663;28;20600;-84
2022/03/31 00:02:47;;;;;;;1.33;1.20;;;1.90;99.90;;;;;;4995663;28;20626;-84
2022/03/31 00:05:13;;;;;;;1.30;1.20;;;1.90;99.90;;;;;;4985094;28;21027;-84
2022/03/31 00:07:57;;;;;;;1.00;0.90;;;1.90;99.90;;;;;;4996758;28;20209;-84
2022/03/31 00:10:25;;;;;;;1.30;1.20;;;1.90;99.90;;;;;;4992552;28;20471;-84
2022/03/31 00:12:52;;;;;;;0.93;0.83;;;1.80;99.90;;;;;;4991338;28;20484;-83
2022/03/31 00:15:19;;;;;;;1.10;1.00;;;1.90;99.90;;;;;;4990403;28;20887;-84
2022/03/31 00:17:45;;;;;;;1.30;1.13;;;1.80;99.90;;;;;;4987123;28;20447;-82
2022/03/31 00:20:11;;;;;;;1.00;0.90;;;1.90;99.90;;;;;;4983615;28;20438;-83
2022/03/31 00:22:38;;;;;;;1.00;0.90;;;1.80;99.90;;;;;;5004023;28;20611;-83
2022/03/31 00:25:06;;;;;;;0.97;0.87;;;1.80;99.90;;;;;;4986224;28;20452;-83
2022/03/31 00:27:31;;;;;;;1.17;1.07;;;1.80;99.90;;;;;;4999456;28;20440;-83
2022/03/31 00:29:57;;;;;;;1.43;1.33;;;1.90;99.90;;;;;;4989235;28;20456;-83
2022/03/31 00:32:22;;;;;;;1.00;0.90;;;1.80;99.90;;;;;;4996880;28;20196;-82
2022/03/31 00:34:48;;;;;;;0.90;0.80;;;1.90;99.90;;;;;;4990681;28;20193;-83
2022/03/31 00:37:14;;;;;;;1.67;1.57;;;1.80;99.90;;;;;;4996627;28;21870;-83
2022/03/31 00:39:39;;;;;;;1.33;1.23;;;1.90;99.90;;;;;;5000569;28;20316;-83
2022/03/31 00:42:06;;;;;;;1.00;0.90;;;1.80;99.90;;;;;;4996595;28;20189;-82
2022/03/31 00:44:32;;;;;;;1.73;1.63;;;1.80;99.90;;;;;;4988007;28;20192;-83
2022/03/31 00:46:57;;;;;;;1.20;1.10;;;1.80;99.90;;;;;;4997488;28;20452;-82
2022/03/31 00:49:24;;;;;;;1.10;1.00;;;1.80;99.90;;;;;;4988758;28;20185;-82
2022/03/31 00:51:52;;;;;;;1.17;1.07;;;1.70;99.90;;;;;;4999681;28;21616;-83
2022/03/31 00:54:19;;;;;;;1.47;1.37;;;1.70;99.90;;;;;;4988504;28;20448;-82
2022/03/31 00:56:48;;;;;;;2.20;2.00;;;1.80;99.90;;;;;;4987126;28;20467;-83
2022/03/31 00:59:22;;;;;;;1.00;0.90;;;1.70;99.90;;;;;;4984747;28;20452;-83
2022/03/31 01:01:48;;;;;;;0.83;0.83;;;1.60;99.90;;;;;;5013132;28;20948;-82
2022/03/31 01:04:15;;;;;;;0.80;0.80;;;1.70;99.90;;;;;;4990144;28;20483;-83
2022/03/31 01:09:40;;;;;;;3.30;3.10;;;1.50;99.90;;;;;;4993154;28;20490;-84
2022/03/31 01:12:19;;;;;;;1.10;1.00;;;1.40;99.90;;;;;;4990656;28;20451;-83
2022/03/31 01:14:44;;;;;;;1.10;1.00;;;1.40;99.90;;;;;;5013615;28;20440;-83
2022/03/31 01:17:10;;;;;;;1.10;1.00;;;1.50;99.90;;;;;;5003100;28;20459;-82
2022/03/31 01:19:36;;;;;;;1.10;1.00;;;1.40;99.90;;;;;;4985487;28;20189;-82
2022/03/31 01:22:02;;;;;;;2.30;1.97;;;1.50;99.90;;;;;;4993245;28;20262;-82
2022/03/31 01:24:28;;;;;;;5.67;5.37;;;1.40;99.90;;;;;;4992380;28;20446;-82
2022/03/31 01:26:54;;;;;;;0.60;0.60;;;1.40;99.90;;;;;;5003005;28;20847;-82
2022/03/31 01:29:21;;;;;;;1.10;1.00;;;1.40;99.90;;;;;;4983045;28;20506;-83
2022/03/31 01:31:47;;;;;;;1.50;1.40;;;1.40;99.90;;;;;;4996032;28;20228;-83
2022/03/31 01:34:12;;;;;;;1.10;1.00;;;1.40;99.90;;;;;;4986339;28;20499;-83
2022/03/31 01:36:38;;;;;;;1.33;1.23;;;1.30;99.90;;;;;;4984397;28;20606;-82
2022/03/31 01:39:05;;;;;;;0.77;0.77;;;1.30;99.90;;;;;;4988890;28;20236;-82
2022/03/31 01:41:30;;;;;;;12.83;12.27;;;1.30;99.90;;;;;;4988383;28;20212;-83
2022/03/31 01:43:56;;;;;;;1.37;1.27;;;1.20;99.90;;;;;;4995431;28;20494;-82
2022/03/31 01:46:22;;;;;;;1.10;1.00;;;1.20;99.90;;;;;;4995239;28;20725;-83
2022/03/31 01:48:47;;;;;;;1.30;1.20;;;1.30;99.90;;;;;;4998782;28;20201;-82
2022/03/31 01:51:14;;;;;;;3.97;3.77;;;1.30;99.90;;;;;;4993543;28;20666;-83
2022/03/31 01:53:51;;;;;;;1.20;1.10;;;1.20;99.90;;;;;;4983518;28;20199;-83
2022/03/31 01:56:52;;;;;;;1.20;1.10;;;1.20;99.90;;;;;;4984967;28;21010;-82
2022/03/31 01:59:17;;;;;;;1.07;0.97;;;1.10;99.90;;;;;;4988191;28;21516;-83
2022/03/31 02:01:43;;;;;;;0.90;0.83;;;1.20;99.90;;;;;;4996679;28;20440;-83
2022/03/31 02:04:08;;;;;;;6.60;6.20;;;1.20;99.90;;;;;;4984052;28;20199;-83
2022/03/31 02:06:34;;;;;;;1.10;1.00;;;1.20;99.90;;;;;;4986796;28;20224;-83
2022/03/31 02:09:08;;;;;;;1.10;1.00;;;1.10;99.90;;;;;;4989338;28;20197;-82
2022/03/31 02:11:34;;;;;;;1.20;1.10;;;1.10;99.90;;;;;;4981831;28;20228;-82
2022/03/31 02:13:59;;;;;;;1.03;0.97;;;1.20;99.90;;;;;;4994611;28;21241;-83
2022/03/31 02:16:25;;;;;;;1.10;1.00;;;1.20;99.90;;;;;;4993990;28;20185;-82
2022/03/31 02:18:50;;;;;;;1.10;1.00;;;1.20;99.90;;;;;;4990342;28;20200;-82
2022/03/31 02:21:16;;;;;;;1.10;1.00;;;1.20;99.90;;;;;;4989919;28;20880;-83
2022/03/31 02:23:42;;;;;;;1.30;1.20;;;1.10;99.90;;;;;;4986400;28;20185;-83
2022/03/31 02:26:07;;;;;;;10.87;10.33;;;1.10;99.90;;;;;;4989739;28;20185;-83
2022/03/31 02:28:57;;;;;;;1.10;1.00;;;1.10;99.90;;;;;;4988094;28;20664;-82
2022/03/31 02:31:22;;;;;;;0.90;0.90;;;1.10;99.90;;;;;;4995981;28;20213;-83
2022/03/31 02:33:48;;;;;;;1.00;0.90;;;1.10;99.90;;;;;;4994085;28;20938;-83
2022/03/31 02:36:13;;;;;;;10.43;9.83;;;1.10;99.90;;;;;;5001737;28;20278;-83
2022/03/31 02:38:39;;;;;;;1.23;1.13;;;1.20;99.90;;;;;;4994083;28;20673;-82
2022/03/31 02:41:05;;;;;;;1.10;1.00;;;1.20;99.90;;;;;;4986136;28;20189;-82
2022/03/31 02:43:33;;;;;;;1.10;1.00;;;1.20;99.90;;;;;;4997161;28;20238;-83
2022/03/31 02:45:59;;;;;;;1.20;1.10;;;1.20;99.90;;;;;;4988326;28;20775;-82
2022/03/31 02:48:25;;;;;;;1.10;1.00;;;1.20;99.90;;;;;;4989840;28;20448;-82
2022/03/31 02:50:51;;;;;;;1.10;1.00;;;1.20;99.90;;;;;;4982857;28;20536;-82
2022/03/31 02:56:16;;;;;;;1.07;0.97;;;1.10;99.90;;;;;;4994963;28;20204;-83
2022/03/31 02:58:50;;;;;;;1.00;0.90;;;1.10;99.90;;;;;;4982045;28;20456;-83
2022/03/31 03:01:22;;;;;;;1.10;1.00;;;1.00;99.90;;;;;;4983409;28;20579;-82
2022/03/31 03:03:50;;;;;;;1.20;1.10;;;1.10;99.90;;;;;;4992076;28;21217;-82
2022/03/31 03:06:15;;;;;;;1.10;1.00;;;1.00;99.90;;;;;;4996163;28;20503;-82
2022/03/31 03:08:41;;;;;;;1.17;1.07;;;1.00;99.90;;;;;;4985420;28;20455;-82
2022/03/31 03:11:08;;;;;;;1.20;1.10;;;1.00;99.90;;;;;;4984075;28;20315;-83
2022/03/31 03:13:59;;;;;;;1.20;1.10;;;1.00;99.90;;;;;;4985807;28;20244;-83
2022/03/31 03:16:25;;;;;;;1.10;1.00;;;0.90;99.90;;;;;;4996973;28;20458;-83
2022/03/31 03:18:54;;;;;;;1.20;1.10;;;1.00;99.90;;;;;;4983914;28;20526;-82
2022/03/31 03:21:20;;;;;;;1.40;1.30;;;1.00;99.90;;;;;;4999708;28;20545;-83
2022/03/31 03:23:48;;;;;;;0.97;0.90;;;1.00;99.90;;;;;;4988621;28;20448;-83
2022/03/31 03:26:13;;;;;;;1.27;1.17;;;1.10;99.90;;;;;;4987252;28;20950;-82
2022/03/31 03:28:39;;;;;;;1.83;1.67;;;1.10;99.90;;;;;;4983082;28;20448;-83
2022/03/31 03:31:05;;;;;;;1.10;1.00;;;1.10;99.90;;;;;;4985056;28;20944;-83
2022/03/31 03:33:32;;;;;;;2.80;2.70;;;1.10;99.90;;;;;;4988737;28;20188;-83
2022/03/31 03:35:58;;;;;;;1.63;1.53;;;1.00;99.90;;;;;;4989269;28;20451;-83
2022/03/31 03:38:24;;;;;;;1.20;1.10;;;1.10;99.90;;;;;;4983960;28;20435;-83
2022/03/31 03:40:49;;;;;;;1.10;1.00;;;1.10;99.90;;;;;;5002461;28;20559;-83
2022/03/31 03:43:15;;;;;;;0.80;0.80;;;1.10;99.90;;;;;;4988782;28;20231;-82
2022/03/31 03:45:40;;;;;;;10.20;9.80;;;1.20;99.90;;;;;;4983313;28;20201;-83
2022/03/31 03:48:07;;;;;;;1.10;1.00;;;1.10;99.90;;;;;;4989526;28;20184;-82
2022/03/31 03:50:33;;;;;;;1.10;1.00;;;1.20;99.90;;;;;;4984517;28;20745;-82
2022/03/31 03:53:03;;;;;;;1.20;1.10;;;1.10;99.90;;;;;;4984760;28;20794;-83
2022/03/31 03:55:32;;;;;;;1.10;1.00;;;1.10;99.90;;;;;;4984799;28;20439;-83
2022/03/31 03:57:58;;;;;;;1.03;0.93;;;1.20;99.90;;;;;;4992943;28;21073;-83
2022/03/31 04:00:23;;;;;;;1.20;1.10;;;1.20;99.90;;;;;;4986293;28;20456;-83
2022/03/31 04:02:49;;;;;;;3.20;3.00;;;1.20;99.90;;;;;;4993985;28;20189;-82
2022/03/31 04:05:14;;;;;;;2.50;1.50;;;1.30;99.90;;;;;;4987276;28;20899;-82
2022/03/31 04:07:41;;;;;;;0.80;0.80;;;1.30;99.90;;;;;;4994783;28;20638;-82
2022/03/31 04:10:09;;;;;;;1.63;1.50;;;1.30;99.90;;;;;;4986516;28;20186;-83
2022/03/31 04:12:34;;;;;;;9.90;9.43;;;1.30;99.90;;;;;;4985148;28;20953;-83
2022/03/31 04:15:02;;;;;;;1.10;1.00;;;1.30;99.90;;;;;;4987995;28;20424;-83
2022/03/31 04:17:27;;;;;;;1.07;0.97;;;1.30;99.90;;;;;;4994881;28;20185;-82
2022/03/31 04:19:53;;;;;;;1.10;1.00;;;1.30;99.90;;;;;;5000302;28;20447;-82
2022/03/31 04:22:18;;;;;;;0.97;0.90;;;1.30;99.90;;;;;;4989395;28;20204;-82
2022/03/31 04:24:44;;;;;;;6.90;6.40;;;1.30;99.90;;;;;;4995470;28;20688;-82
2022/03/31 04:27:09;;;;;;;1.30;1.20;;;1.30;99.90;;;;;;5009363;28;20188;-82
2022/03/31 04:29:35;;;;;;;3.00;2.80;;;1.40;99.90;;;;;;4998860;28;20216;-82
2022/03/31 04:32:02;;;;;;;1.10;1.00;;;1.40;99.90;;;;;;4993072;28;20220;-82
2022/03/31 04:34:27;;;;;;;1.00;0.90;;;1.40;99.90;;;;;;4987051;28;20553;-82
2022/03/31 04:36:53;;;;;;;18.67;17.90;;;1.40;99.90;;;;;;4992402;28;20447;-82
2022/03/31 04:39:18;;;;;;;1.20;1.10;;;1.50;99.90;;;;;;5011488;28;20304;-82
2022/03/31 04:41:44;;;;;;;1.10;1.00;;;1.50;99.90;;;;;;4991156;28;20255;-82
2022/03/31 04:44:09;;;;;;;1.20;1.10;;;1.50;99.90;;;;;;4991389;28;20269;-82
2022/03/31 04:46:35;;;;;;;1.00;0.90;;;1.50;99.90;;;;;;4990208;28;20204;-81
2022/03/31 04:49:01;;;;;;;1.10;1.00;;;1.50;99.90;;;;;;4988900;28;20189;-83
2022/03/31 04:51:27;;;;;;;1.67;1.57;;;1.50;99.90;;;;;;4988973;28;20271;-82
2022/03/31 04:53:53;;;;;;;1.10;1.00;;;1.60;99.90;;;;;;4996691;28;20436;-82
2022/03/31 04:56:18;;;;;;;1.10;1.00;;;1.60;99.90;;;;;;5002085;28;20463;-82
2022/03/31 04:58:45;;;;;;;1.43;1.33;;;1.60;99.90;;;;;;5012193;28;20185;-82
2022/03/31 05:01:11;;;;;;;1.10;1.00;;;1.70;99.90;;;;;;4985855;28;20324;-82
2022/03/31 05:03:39;;;;;;;1.20;1.10;;;1.60;99.90;;;;;;4994291;28;20444;-83
2022/03/31 05:06:06;;;;;;;1.10;1.00;;;1.60;99.90;;;;;;4990482;28;20472;-82
2022/03/31 05:08:32;;;;;;;1.07;0.97;;;1.60;99.90;;;;;;4997570;28;20571;-82
2022/03/31 05:10:57;;;;;;;3.23;1.80;;;1.60;99.90;;;;;;4991501;28;20574;-82
2022/03/31 05:13:23;;;;;;;1.67;1.57;;;1.60;99.90;;;;;;4988995;28;20177;-83
2022/03/31 05:15:49;;;;;;;0.97;0.90;;;1.70;99.90;;;;;;4986860;28;20196;-83
2022/03/31 05:18:14;;;;;;;1.10;1.00;;;1.70;99.90;;;;;;4986789;28;20197;-82
2022/03/31 05:20:42;;;;;;;1.00;0.90;;;1.70;99.90;;;;;;4987495;28;20188;-83
2022/03/31 05:23:07;;;;;;;1.00;0.90;;;1.70;99.90;;;;;;4999768;28;20645;-82
2022/03/31 05:25:33;;;;;;;1.00;0.90;;;1.70;99.90;;;;;;4993869;28;20451;-82
2022/03/31 05:28:00;;;;;;;1.43;1.33;;;1.70;99.90;;;;;;4990763;28;20189;-82
2022/03/31 05:30:25;;;;;;;1.43;1.33;;;1.70;99.90;;;;;;4990276;28;20197;-82
2022/03/31 05:32:53;;;;;;;0.90;0.83;;;1.60;99.90;;;;;;4989769;28;21018;-81
2022/03/31 05:35:19;;;;;;;1.07;0.97;;;1.60;99.90;;;;;;4989336;28;20203;-83
2022/03/31 05:37:45;;;;;;;1.00;0.90;;;1.60;99.90;;;;;;4987954;28;20469;-82
2022/03/31 05:40:11;;;;;;;1.00;0.90;;;1.70;99.90;;;;;;4991177;28;20531;-83
2022/03/31 05:42:37;;;;;;;1.10;1.00;;;1.70;99.90;;;;;;4988832;28;20199;-83
2022/03/31 05:45:05;;;;;;;1.00;0.90;;;1.70;99.90;;;;;;4991060;28;20436;-83
2022/03/31 05:47:31;;;;;;;1.10;1.00;;;1.80;99.90;;;;;;5001183;28;20280;-83
2022/03/31 05:49:56;;;;;;;1.00;0.90;;;1.70;99.90;;;;;;4975012;28;21070;-83
2022/03/31 05:52:22;;;;;;;1.20;1.10;;;1.70;99.90;;;;;;4991433;28;20908;-83
2022/03/31 05:54:48;;;;;;;0.97;0.90;;;1.80;99.90;;;;;;4990156;28;20239;-82
2022/03/31 05:57:14;;;;;;;0.97;0.90;;;1.80;99.90;;;;;;4995891;28;20190;-83
2022/03/31 05:59:40;;;;;;;0.93;0.90;;;1.90;99.90;;;;;;4987695;28;20873;-82
2022/03/31 06:02:06;;;;;;;1.00;1.00;;;1.90;99.90;;;;;;4989729;28;20550;-83
2022/03/31 06:04:32;;;;;;;1.43;1.33;;;1.80;99.90;;;;;;4995570;28;20230;-83
2022/03/31 06:06:57;;;;;;;1.00;1.00;;;1.80;99.90;;;;;;4970867;28;20832;-83
2022/03/31 06:09:23;;;;;;;1.10;1.00;;;1.80;99.90;;;;;;4992385;28;20185;-82
2022/03/31 06:11:48;;;;;;;1.00;0.90;;;1.80;99.90;;;;;;4989296;28;20224;-82
2022/03/31 06:14:14;;;;;;;0.90;0.83;;;1.80;99.90;;;;;;5010446;28;20259;-82
2022/03/31 06:16:40;;;;;;;24.23;22.93;;;1.90;99.90;;;;;;5013292;28;20185;-82
2022/03/31 06:19:08;;;;;;;1.00;0.90;;;1.90;99.90;;;;;;4990887;28;20185;-82
2022/03/31 06:21:34;;;;;;;1.00;0.90;;;1.80;99.90;;;;;;4999611;28;20259;-82
2022/03/31 06:24:00;;;;;;;1.10;1.00;;;1.90;99.90;;;;;;4985843;28;20448;-81
2022/03/31 06:26:27;;;;;;;1.10;1.00;;;1.90;99.90;;;;;;4980248;28;20531;-82
2022/03/31 06:28:52;;;;;;;1.00;0.90;;;1.90;99.90;;;;;;4987631;28;20444;-84
2022/03/31 06:31:18;;;;;;;0.80;0.70;;;2.00;99.90;;;;;;4984560;28;20480;-82
2022/03/31 06:33:43;;;;;;;1.00;0.90;;;2.00;99.90;;;;;;4981301;28;20196;-85
2022/03/31 06:36:09;;;;;;;1.10;1.00;;;2.00;99.90;;;;;;4989287;28;20181;-83
2022/03/31 06:38:35;;;;;;;0.93;0.83;;;2.00;99.90;;;;;;4984000;28;20189;-84
2022/03/31 06:41:06;;;;;;;1.00;0.90;;;2.00;99.90;;;;;;4972192;28;20280;-83
2022/03/31 06:43:33;;;;;;;2.33;2.13;;;2.00;99.90;;;;;;4986510;28;20185;-84
2022/03/31 06:45:59;;;;;;;2.90;2.80;;;2.10;99.90;;;;;;4980918;28;20813;-82
2022/03/31 06:48:30;;;;;;;0.90;0.80;;;2.10;99.90;;;;;;4986309;28;20611;-83
2022/03/31 06:50:59;;;;;;;1.00;0.90;;;2.10;99.90;;;;;;5008158;28;20987;-81
2022/03/31 06:53:25;;;;;;;1.00;0.90;;;2.10;99.90;;;;;;4996531;28;20511;-82
2022/03/31 06:55:51;;;;;;;1.93;1.83;;;2.10;99.90;;;;;;4991784;28;20439;-81
2022/03/31 06:58:16;;;;;;;1.03;0.93;;;2.10;99.90;;;;;;4999851;28;20440;-81
2022/03/31 07:00:42;;;;;;;1.03;0.93;;;2.10;99.90;;;;;;4994597;28;20735;-83
2022/03/31 07:03:08;;;;;;;1.10;1.00;;;2.00;99.90;;;;;;4981484;28;20668;-83
2022/03/31 07:05:37;;;;;;;1.10;1.00;;;2.00;99.90;;;;;;4995109;28;20244;-81
2022/03/31 07:08:03;;;;;;;1.37;1.27;;;2.00;99.90;;;;;;4999840;28;20232;-83
2022/03/31 07:10:29;;;;;;;1.00;0.90;;;2.00;99.90;;;;;;4988934;28;20561;-84
2022/03/31 07:12:55;;;;;;;0.80;0.80;;;2.00;99.90;;;;;;4989935;28;20955;-83
2022/03/31 07:15:20;;;;;;;1.40;1.30;;;2.00;99.90;;;;;;4999486;28;20220;-83
2022/03/31 07:17:46;;;;;;;2.20;2.10;;;2.00;99.90;;;;;;4991683;28;20554;-82
2022/03/31 07:20:11;;;;;;;1.27;1.17;;;2.00;99.90;;;;;;4986985;28;20189;-83
2022/03/31 07:22:45;;;;;;;1.10;1.00;;;2.10;99.90;;;;;;4989326;28;20225;-82
2022/03/31 07:25:11;;;;;;;1.00;0.90;;;2.10;99.90;;;;;;4992559;28;20283;-83
2022/03/31 07:27:36;;;;;;;1.00;0.90;;;2.10;99.90;;;;;;5002948;28;20440;-83
2022/03/31 07:30:02;;;;;;;1.20;1.10;;;2.10;99.90;;;;;;4969717;28;20693;-82
2022/03/31 07:32:28;;;;;;;1.20;1.10;;;2.10;99.90;;;;;;4990218;28;20207;-81
2022/03/31 07:34:53;;;;;;;1.00;0.90;;;2.10;99.90;;;;;;4987675;28;20432;-82
2022/03/31 07:37:19;;;;;;;1.00;0.90;;;2.10;99.90;;;;;;4988301;28;20552;-82
2022/03/31 07:39:45;;;;;;;1.00;0.90;;;2.20;99.90;;;;;;4985860;28;20221;-82
2022/03/31 07:42:11;;;;;;;0.97;0.90;;;2.20;99.90;;;;;;5008735;28;20663;-82
2022/03/31 07:44:37;;;;;;;1.00;0.90;;;2.20;99.90;;;;;;5002187;28;20943;-82
2022/03/31 07:47:03;;;;;;;1.00;0.90;;;2.30;99.90;;;;;;4989144;28;20448;-82
2022/03/31 07:49:28;;;;;;;1.00;0.90;;;2.20;99.90;;;;;;4990068;28;20201;-83
2022/03/31 07:51:54;;;;;;;0.93;0.87;;;2.40;99.90;;;;;;4998207;28;20216;-82
2022/03/31 07:54:20;;;;;;;0.97;0.87;;;2.40;99.90;;;;;;4997189;28;20232;-83
2022/03/31 07:56:45;;;;;;;1.00;0.90;;;2.30;99.90;;;;;;4991566;28;20200;-83
2022/03/31 07:59:11;;;;;;;0.90;0.80;;;2.40;99.90;;;;;;4991370;28;20189;-83
2022/03/31 08:01:37;;;;;;;1.63;1.53;;;2.50;99.90;;;;;;4981582;28;20189;-83
2022/03/31 08:04:03;;;;;;;1.00;0.90;;;2.40;99.90;;;;;;4988585;28;20177;-83
2022/03/31 08:06:29;;;;;;;1.00;0.90;;;2.50;99.90;;;;;;4993061;28;20223;-82
2022/03/31 08:08:55;;;;;;;2.63;2.50;;;2.40;99.90;;;;;;5003688;28;20484;-82
2022/03/31 08:11:20;;;;;;;1.60;1.50;;;2.50;99.90;;;;;;4991806;28;21058;-83
2022/03/31 08:13:46;;;;;;;1.00;0.90;;;2.50;99.90;;;;;;4989309;28;20232;-83
2022/03/31 08:16:12;;;;;;;1.20;1.10;;;2.50;99.90;;;;;;4980556;28;20210;-83
2022/03/31 08:18:38;;;;;;;1.00;0.90;;;2.60;99.90;;;;;;4957542;28;20178;-82
2022/03/31 08:21:05;;;;;;;1.50;1.37;;;2.70;99.90;;;;;;4993585;28;20511;-83
2022/03/31 08:23:34;;;;;;;1.00;0.90;;;2.60;99.90;;;;;;4994759;28;20181;-82
2022/03/31 08:25:59;;;;;;;0.80;0.80;;;2.60;99.90;;;;;;4992431;28;20542;-83
2022/03/31 08:28:25;;;;;;;0.80;0.80;;;2.70;99.90;;;;;;5009183;28;20538;-82
2022/03/31 08:30:51;;;;;;;0.80;0.80;;;2.60;99.90;;;;;;4998188;28;20208;-83
2022/03/31 08:33:17;;;;;;;1.00;0.90;;;2.70;99.90;;;;;;5003594;28;21786;-83
2022/03/31 08:35:43;;;;;;;0.83;0.80;;;2.70;99.90;;;;;;4989169;28;20448;-82
2022/03/31 08:38:08;;;;;;;1.00;0.90;;;2.70;99.90;;;;;;4988387;28;20189;-82
2022/03/31 08:40:36;;;;;;;1.10;1.00;;;2.70;99.90;;;;;;4988769;28;20826;-82
2022/03/31 08:43:02;;;;;;;1.00;0.90;;;2.70;99.90;;;;;;4995362;28;20272;-82
2022/03/31 08:45:33;;;;;;;0.93;0.83;;;2.70;99.90;;;;;;4992277;28;20445;-82
2022/03/31 08:48:00;;;;;;;1.00;0.90;;;2.70;99.90;;;;;;4987428;28;20448;-83
2022/03/31 08:50:26;;;;;;;0.93;0.87;;;2.70;99.90;;;;;;4993854;28;20467;-86
2022/03/31 08:52:53;;;;;;;1.00;0.90;;;2.70;99.90;;;;;;5000836;28;20841;-84
2022/03/31 08:55:19;;;;;;;1.00;0.90;;;2.80;99.90;;;;;;4996303;28;20192;-86
2022/03/31 08:57:50;;;;;;;0.97;0.90;;;2.70;99.90;;;;;;4990515;28;20447;-85
2022/03/31 09:00:18;;;;;;;1.17;1.07;;;2.80;99.90;;;;;;4986408;28;20200;-86
2022/03/31 09:03:01;;;;;;;1.00;0.90;;;2.90;99.90;;;;;;4985498;28;20807;-84
2022/03/31 09:05:34;;;;;;;0.80;0.80;;;2.90;99.90;;;;;;4992370;28;20506;-86
2022/03/31 09:08:00;;;;;;;1.93;1.67;;;3.00;99.90;;;;;;4993725;28;20452;-86
2022/03/31 09:10:33;;;;;;;0.80;0.80;;;3.10;99.90;;;;;;4987235;28;20468;-84
2022/03/31 09:13:02;;;;;;;0.90;0.83;;;3.20;99.90;;;;;;5001983;28;20451;-86
2022/03/31 09:15:28;;;;;;;1.00;0.90;;;3.20;99.90;;;;;;4988158;28;20472;-84
2022/03/31 09:17:55;;;;;;;0.90;0.80;;;3.40;99.90;;;;;;4992537;28;20813;-85
2022/03/31 09:20:21;;;;;;;1.00;0.90;;;3.30;99.90;;;;;;4983334;28;20452;-85
2022/03/31 09:22:49;;;;;;;0.90;0.80;;;3.40;99.90;;;;;;4988178;28;20450;-84
2022/03/31 09:25:26;;;;;;;1.00;0.90;;;3.30;99.90;;;;;;4990430;28;20191;-85
2022/03/31 09:27:52;;;;;;;0.80;0.80;;;3.20;99.90;;;;;;4987629;28;20436;-84
2022/03/31 09:30:18;;;;;;;1.00;0.90;;;3.30;99.90;;;;;;4980735;28;20449;-84
2022/03/31 09:32:53;;;;;;;1.50;1.30;;;3.20;99.90;;;;;;4983214;28;21128;-85
2022/03/31 09:35:24;;;;;;;1.00;0.90;;;3.30;99.90;;;;;;4987354;28;20440;-85
2022/03/31 09:37:55;;;;;;;0.83;0.80;;;3.40;99.90;;;;;;4986875;28;20451;-85
2022/03/31 09:40:21;;;;;;;1.00;0.90;;;3.40;99.90;;;;;;4973566;28;20440;-84
2022/03/31 09:43:20;;;;;;;1.10;1.00;;;3.50;99.90;;;;;;4995878;28;20545;-84
2022/03/31 09:45:48;;;;;;;1.10;1.00;;;3.60;99.90;;;;;;4982948;28;20437;-86
2022/03/31 09:48:23;;;;;;;0.83;0.80;;;3.70;99.90;;;;;;4987247;28;20511;-85
2022/03/31 09:50:49;;;;;;;0.83;0.77;;;3.80;99.90;;;;;;5000382;28;20474;-85
2022/03/31 09:53:15;;;;;;;0.90;0.80;;;4.00;99.90;;;;;;4991912;28;20498;-85
2022/03/31 09:55:45;;;;;;;0.90;0.70;;;4.00;99.90;;;;;;4970400;28;20433;-84
2022/03/31 09:58:19;;;;;;;0.80;0.70;;;4.10;99.90;;;;;;5009323;28;20551;-85
2022/03/31 10:00:45;;;;;;;0.87;0.80;;;4.10;99.90;;;;;;4995549;28;20929;-85
2022/03/31 10:03:15;;;;;;;0.80;0.70;;;4.10;99.90;;;;;;4999778;28;20454;-84
2022/03/31 10:05:42;;;;;;;0.90;0.80;;;4.20;99.90;;;;;;5006337;28;20431;-84
2022/03/31 10:08:10;;;;;;;0.80;0.70;;;4.20;99.90;;;;;;4986172;28;20847;-85
2022/03/31 10:10:37;;;;;;;0.80;0.80;;;4.10;99.90;;;;;;4986737;28;20475;-84
2022/03/31 10:13:20;;;;;;;0.80;0.70;;;4.40;99.90;;;;;;4995544;28;20459;-85
2022/03/31 10:15:46;;;;;;;0.90;0.80;;;4.40;99.90;;;;;;4978853;28;20526;-85
2022/03/31 10:18:14;;;;;;;0.83;0.70;;;4.40;99.90;;;;;;4983901;28;20940;-85
2022/03/31 10:20:39;;;;;;;0.80;0.70;;;4.20;99.90;;;;;;4976484;28;20451;-85
2022/03/31 10:25:53;;;;;;;0.90;0.80;;;4.20;99.90;;;;;;4995663;28;20191;-86
2022/03/31 10:28:21;;;;;;;0.90;0.80;;;4.10;99.90;;;;;;4987640;28;20446;-85
2022/03/31 10:31:01;;;;;;;0.90;0.80;;;4.30;99.90;;;;;;4982151;28;20472;-85
2022/03/31 10:33:31;;;;;;;0.90;0.80;;;4.40;99.90;;;;;;4985769;28;20518;-87
2022/03/31 10:36:03;;;;;;;0.80;0.80;;;4.70;99.90;;;;;;4999034;28;20445;-86
2022/03/31 10:38:32;;;;;;;0.80;0.70;;;4.80;99.90;;;;;;4986029;28;21331;-84
2022/03/31 10:41:05;;;;;;;0.80;0.70;;;5.10;99.90;;;;;;4986036;28;20503;-84
2022/03/31 10:43:32;;;;;;;1.10;0.83;;;5.20;99.90;;;;;;4982133;28;20461;-85
2022/03/31 10:46:03;;;;;;;0.80;0.70;;;5.30;99.90;;;;;;4990049;28;20448;-85
2022/03/31 10:48:30;;;;;;;0.90;0.80;;;5.40;99.90;;;;;;4980768;28;20445;-84
2022/03/31 10:51:11;;;;;;;0.80;0.70;;;5.50;99.90;;;;;;5001674;28;20484;-84
2022/03/31 10:53:44;;;;;;;1.00;0.80;;;5.70;99.90;;;;;;4988488;28;20498;-85
2022/03/31 10:56:18;;;;;;;1.20;0.97;;;5.70;99.90;;;;;;4990485;28;20436;-85
2022/03/31 10:58:45;;;;;;;1.00;0.90;;;6.30;99.90;;;;;;4987197;28;20448;-85
2022/03/31 11:01:11;;;;;;;0.80;0.70;;;6.00;99.50;;;;;;4977105;28;20511;-85
2022/03/31 11:03:37;;;;;;;1.00;0.90;;;6.40;99.90;;;;;;4987489;28;20472;-86
2022/03/31 11:06:10;;;;;;;1.10;0.97;;;6.70;99.90;;;;;;4971401;28;21078;-85
2022/03/31 11:08:47;;;;;;;1.13;1.03;;;7.00;99.90;;;;;;4996354;28;20189;-85
2022/03/31 11:11:25;;;;;;;0.80;0.60;;;7.10;99.90;;;;;;4992185;28;20918;-86
2022/03/31 11:13:51;;;;;;;0.80;0.70;;;7.10;99.00;;;;;;4986168;28;20451;-85
2022/03/31 11:16:18;;;;;;;0.90;0.73;;;6.70;97.60;;;;;;4987123;28;20559;-86
2022/03/31 11:18:57;;;;;;;0.80;0.60;;;7.40;99.40;;;;;;4984473;28;20448;-86
2022/03/31 11:21:36;;;;;;;0.80;0.60;;;8.20;99.40;;;;;;4989243;28;20440;-85
2022/03/31 11:24:02;;;;;;;1.33;1.20;;;8.70;98.00;;;;;;4976543;28;20461;-87
2022/03/31 11:26:30;;;;;;;0.90;0.70;;;8.30;97.90;;;;;;4984767;28;20951;-86
2022/03/31 11:28:56;;;;;;;0.80;0.60;;;8.50;97.70;;;;;;4979095;28;20483;-86
2022/03/31 11:31:22;;;;;;;0.80;0.60;;;8.40;99.90;;;;;;4988995;28;20838;-87
2022/03/31 11:33:49;;;;;;;0.80;0.60;;;8.50;96.00;;;;;;4994714;28;20463;-86
2022/03/31 11:36:17;;;;;;;0.80;0.60;;;8.50;96.70;;;;;;4992062;28;20534;-86
2022/03/31 11:38:57;;;;;;;0.90;0.70;;;8.40;95.20;;;;;;5003240;28;20959;-86
2022/03/31 11:41:23;;;;;;;0.80;0.50;;;8.70;95.20;;;;;;4988063;28;21264;-86
2022/03/31 11:43:48;;;;;;;0.80;0.60;;;8.70;96.30;;;;;;4987996;28;20443;-85
2022/03/31 11:46:14;;;;;;;0.90;0.70;;;8.60;94.30;;;;;;4997167;28;20460;-85
2022/03/31 11:48:45;;;;;;;0.90;0.60;;;8.40;96.60;;;;;;4988825;28;20197;-86
2022/03/31 11:51:10;;;;;;;0.90;0.70;;;7.90;96.50;;;;;;4990086;28;20231;-88
2022/03/31 11:53:44;;;;;;;1.10;0.80;;;7.70;96.90;;;;;;4980495;28;20449;-88
2022/03/31 11:56:16;;;;;;;0.73;0.70;;;7.60;96.70;;;;;;4977274;28;20236;-86
2022/03/31 11:58:49;;;;;;;0.80;0.60;;;8.10;98.50;;;;;;4991550;28;20440;-87
2022/03/31 12:01:21;;;;;;;0.90;0.80;;;8.20;97.00;;;;;;4984399;28;20444;-87
2022/03/31 12:03:47;;;;;;;1.00;0.77;;;8.00;97.40;;;;;;4988950;28;20436;-87
2022/03/31 12:06:16;;;;;;;0.90;0.70;;;8.00;96.50;;;;;;4993390;28;20530;-87
2022/03/31 12:08:42;;;;;;;1.10;0.90;;;8.80;99.60;;;;;;4987404;28;20188;-87
2022/03/31 12:11:08;;;;;;;0.90;0.60;;;8.40;98.90;;;;;;4995288;28;21000;-87
2022/03/31 12:13:48;;;;;;;0.83;0.60;;;8.30;96.00;;;;;;4997212;28;20542;-87
2022/03/31 12:16:13;;;;;;;0.80;0.60;;;8.60;97.20;;;;;;4992234;28;20528;-86
2022/03/31 12:18:40;;;;;;;0.80;0.60;;;8.60;95.80;;;;;;4982016;28;20984;-86
2022/03/31 12:21:07;;;;;;;0.80;0.60;;;8.60;95.50;;;;;;4994310;28;20197;-84
2022/03/31 12:23:44;;;;;;;1.00;0.70;;;8.50;96.10;;;;;;4993429;28;20795;-87
2022/03/31 12:26:16;;;;;;;0.90;0.60;;;8.70;96.70;;;;;;4992136;28;20464;-85
2022/03/31 12:28:43;;;;;;;1.63;1.00;;;8.80;96.20;;;;;;4993123;28;20443;-87
2022/03/31 12:31:23;;;;;;;0.80;0.50;;;8.70;95.80;;;;;;4990684;28;20483;-87
2022/03/31 12:33:53;;;;;;;0.80;0.60;;;8.40;96.90;;;;;;4982173;28;20964;-88
2022/03/31 12:36:32;;;;;;;0.80;0.60;;;7.90;95.80;;;;;;4987725;28;20456;-88
2022/03/31 12:39:02;;;;;;;0.80;0.60;;;8.10;95.30;;;;;;4989261;28;20444;-87
2022/03/31 12:41:34;;;;;;;0.80;0.60;;;8.30;95.50;;;;;;4993971;28;20470;-86
2022/03/31 12:44:17;;;;;;;0.80;0.60;;;8.30;94.80;;;;;;4993276;28;20444;-87
2022/03/31 12:46:52;;;;;;;0.80;0.60;;;7.80;94.30;;;;;;4989977;28;20428;-87
2022/03/31 12:49:20;;;;;;;0.80;0.60;;;7.90;93.40;;;;;;4989151;28;20439;-87
2022/03/31 12:52:01;;;;;;;0.80;0.67;;;7.50;93.40;;;;;;4992181;28;20495;-86
2022/03/31 12:54:35;;;;;;;0.80;0.60;;;7.70;95.50;;;;;;4989667;28;20484;-86
2022/03/31 12:57:12;;;;;;;0.80;0.60;;;8.10;96.20;;;;;;4990867;28;21041;-85
2022/03/31 12:59:39;;;;;;;0.80;0.60;;;8.40;94.60;;;;;;4981554;28;20444;-84
2022/03/31 13:02:09;;;;;;;0.40;0.40;;;8.50;95.30;;;;;;4976209;28;21378;-84
2022/03/31 13:04:40;;;;;;;0.30;0.30;;;8.50;94.40;;;;;;4985058;28;20452;-85
2022/03/31 13:07:29;;;;;;;0.47;0.47;;;8.30;91.80;;;;;;4991630;28;21015;-86
2022/03/31 13:10:00;;;;;;;0.20;0.20;;;8.90;93.40;;;;;;4988134;28;20444;-85